Time;durP1;ratioP1;P1;durP2;ratioP2;P2;SDS_P1;SDS_P2;PMS_P1;PMS_P2;Temp;Humidity;BMP_temperature;BMP_pressure;BME280_temperature;BME280_humidity;BME280_pressure;Samples;Min_cycle;Max_cycle;Signal;HPM_P1;HPM_P2
2021/10/19 00:00:16;;;;;;;10.18;5.95;;;;;;;-141.50;100.00;63355.56;4957049;28;20492;-85
2021/10/19 00:02:43;;;;;;;11.52;5.18;;;;;;;-141.50;100.00;63355.56;4961018;28;20086;-84
2021/10/19 00:05:11;;;;;;;12.85;5.05;;;;;;;-141.50;100.00;63355.56;4979801;28;20054;-85
2021/10/19 00:07:38;;;;;;;9.73;5.60;;;;;;;-141.50;100.00;63355.56;4961019;28;20101;-84
2021/10/19 00:10:06;;;;;;;8.50;5.13;;;;;;;-141.50;100.00;63355.56;4960730;28;20049;-84
2021/10/19 00:12:33;;;;;;;8.20;4.85;;;;;;;-141.50;100.00;63355.56;4945835;28;20149;-83
2021/10/19 00:15:03;;;;;;;10.48;5.03;;;;;;;-141.50;100.00;63355.56;4946876;28;20129;-83
2021/10/19 00:17:30;;;;;;;15.27;4.97;;;;;;;-141.50;100.00;63355.56;4959046;28;20062;-83
2021/10/19 00:19:57;;;;;;;8.02;4.95;;;;;;;-141.50;100.00;63355.56;4963216;28;20046;-84
2021/10/19 00:22:23;;;;;;;7.82;4.53;;;;;;;-141.50;100.00;63355.56;4964948;28;20115;-83
2021/10/19 00:24:50;;;;;;;7.05;4.35;;;;;;;-141.50;100.00;63355.56;4963918;28;20046;-84
2021/10/19 00:27:18;;;;;;;7.80;4.20;;;;;;;-141.50;100.00;63355.56;4947420;28;20047;-83
2021/10/19 00:29:45;;;;;;;7.53;4.35;;;;;;;-141.50;100.00;63355.56;4945204;28;20043;-83
2021/10/19 00:32:11;;;;;;;10.82;4.82;;;;;;;-141.50;100.00;63355.56;4944766;28;20059;-85
2021/10/19 00:34:38;;;;;;;7.47;4.18;;;;;;;-141.50;100.00;63355.56;4945515;28;20053;-85
2021/10/19 00:37:05;;;;;;;8.75;4.38;;;;;;;-141.50;100.00;63355.56;4961617;28;20047;-84
2021/10/19 00:39:31;;;;;;;7.78;4.63;;;;;;;-141.50;100.00;63355.56;4944716;28;20446;-83
2021/10/19 00:41:58;;;;;;;9.32;4.03;;;;;;;-141.50;100.00;63355.56;4961370;28;20050;-84
2021/10/19 00:44:24;;;;;;;7.55;4.60;;;;;;;-141.50;100.00;63355.56;4945802;28;20057;-83
2021/10/19 00:46:52;;;;;;;7.20;4.20;;;;;;;-141.50;100.00;63355.56;4945789;28;20054;-84
2021/10/19 00:49:19;;;;;;;7.32;4.10;;;;;;;-141.50;100.00;63355.56;4946922;28;20105;-83
2021/10/19 00:51:46;;;;;;;8.13;4.05;;;;;;;-141.50;100.00;63355.56;4962612;28;20051;-84
2021/10/19 00:54:14;;;;;;;8.48;4.32;;;;;;;-141.50;100.00;63355.56;4961995;28;20047;-82
2021/10/19 00:56:41;;;;;;;9.13;4.00;;;;;;;-141.50;100.00;63355.56;4944307;28;20062;-84
2021/10/19 00:59:07;;;;;;;5.93;4.30;;;;;;;-141.50;100.00;63355.56;4946107;28;20043;-84
2021/10/19 01:01:34;;;;;;;8.05;4.28;;;;;;;-141.50;100.00;63355.56;4946729;28;20055;-85
2021/10/19 01:04:02;;;;;;;7.15;4.10;;;;;;;-141.50;100.00;63355.56;4946305;28;20137;-83
2021/10/19 01:06:28;;;;;;;5.97;4.07;;;;;;;-141.50;100.00;63355.56;4946500;28;20050;-83
2021/10/19 01:08:55;;;;;;;7.15;4.50;;;;;;;-141.50;100.00;63355.56;4946860;28;20050;-85
2021/10/19 01:11:21;;;;;;;6.60;4.15;;;;;;;-141.50;100.00;63355.56;4962701;28;20106;-84
2021/10/19 01:13:48;;;;;;;6.13;3.85;;;;;;;-141.50;100.00;63355.56;4946514;28;20149;-84
2021/10/19 01:16:15;;;;;;;8.43;4.30;;;;;;;-141.50;100.00;63355.56;4962864;28;20105;-84
2021/10/19 01:18:43;;;;;;;7.07;3.97;;;;;;;-141.50;100.00;63355.56;4958423;28;20070;-84
2021/10/19 01:21:10;;;;;;;8.98;3.90;;;;;;;-141.50;100.00;63355.56;4943037;28;20047;-84
2021/10/19 01:23:37;;;;;;;6.45;4.28;;;;;;;-141.50;100.00;63355.56;4947345;28;20051;-84
2021/10/19 01:26:07;;;;;;;7.93;5.03;;;;;;;-141.50;100.00;63355.56;4949396;28;20051;-85
2021/10/19 01:28:36;;;;;;;8.25;5.50;;;;;;;-141.50;100.00;63355.56;4960756;28;20054;-87
2021/10/19 01:31:04;;;;;;;10.68;6.00;;;;;;;-141.50;100.00;63355.56;4953904;28;20546;-84
2021/10/19 01:33:32;;;;;;;8.98;5.97;;;;;;;-141.50;100.00;63355.56;4942252;28;20101;-84
2021/10/19 01:36:00;;;;;;;10.40;5.97;;;;;;;-141.50;100.00;63355.56;4957400;28;20035;-84
2021/10/19 01:38:29;;;;;;;9.60;6.05;;;;;;;-141.50;100.00;63355.56;4942914;28;20074;-83
2021/10/19 01:40:57;;;;;;;9.35;6.07;;;;;;;-141.50;100.00;63355.56;4958351;28;20055;-85
2021/10/19 01:43:26;;;;;;;8.90;5.85;;;;;;;-141.50;100.00;63355.56;4941644;28;20054;-84
2021/10/19 01:45:55;;;;;;;9.50;5.82;;;;;;;-141.50;100.00;63355.56;4975790;28;20054;-86
2021/10/19 01:48:22;;;;;;;11.23;6.40;;;;;;;-141.50;100.00;63355.56;4981921;28;20369;-84
2021/10/19 01:50:49;;;;;;;13.27;6.22;;;;;;;-141.50;100.00;63355.56;4961023;28;20046;-85
2021/10/19 01:53:16;;;;;;;9.55;5.70;;;;;;;-141.50;100.00;63355.56;4945216;28;20051;-84
2021/10/19 01:55:43;;;;;;;10.48;6.18;;;;;;;-141.50;100.00;63355.56;4945109;28;20059;-85
2021/10/19 01:58:10;;;;;;;9.48;5.97;;;;;;;-141.50;100.00;63355.56;4944865;28;20047;-84
2021/10/19 02:00:39;;;;;;;11.68;5.75;;;;;;;-141.50;100.00;63355.56;4964779;28;20074;-85
2021/10/19 02:03:07;;;;;;;8.98;5.32;;;;;;;-141.50;100.00;63355.56;4948270;28;20051;-85
2021/10/19 02:05:34;;;;;;;8.70;5.57;;;;;;;-141.50;100.00;63355.56;4949421;28;20074;-84
2021/10/19 02:08:03;;;;;;;9.60;5.95;;;;;;;-141.50;100.00;63355.56;4953482;28;20062;-85
2021/10/19 02:10:30;;;;;;;9.57;5.50;;;;;;;-141.50;100.00;63355.56;4952441;28;20564;-85
2021/10/19 02:12:57;;;;;;;8.70;5.63;;;;;;;-141.50;100.00;63355.56;4965070;28;20047;-85
2021/10/19 02:15:27;;;;;;;8.27;5.68;;;;;;;-141.50;100.00;63355.56;4949230;28;20055;-84
2021/10/19 02:17:55;;;;;;;10.27;5.78;;;;;;;-141.50;100.00;63355.56;4982561;28;20043;-84
2021/10/19 02:20:23;;;;;;;11.00;6.18;;;;;;;-141.50;100.00;63355.56;4964892;28;20054;-85
2021/10/19 02:22:51;;;;;;;10.20;6.25;;;;;;;-141.50;100.00;63355.56;4948164;28;20082;-84
2021/10/19 02:25:18;;;;;;;13.65;6.05;;;;;;;-141.50;100.00;63355.56;4957900;23;20149;-82
2021/10/19 02:27:47;;;;;;;10.65;6.18;;;;;;;-141.50;100.00;63355.56;4969553;28;20054;-83
2021/10/19 02:30:15;;;;;;;10.80;6.35;;;;;;;-141.50;100.00;63355.56;4953372;28;20421;-83
2021/10/19 02:32:43;;;;;;;10.48;6.75;;;;;;;-141.50;100.00;63355.56;4969744;28;20154;-83
2021/10/19 02:35:12;;;;;;;12.30;6.70;;;;;;;-141.50;100.00;63355.56;4969033;28;20042;-81
2021/10/19 02:37:40;;;;;;;11.63;6.90;;;;;;;-141.50;100.00;63355.56;4952309;28;20097;-83
2021/10/19 02:40:11;;;;;;;9.65;6.50;;;;;;;-141.50;100.00;63355.56;4970491;28;20555;-85
2021/10/19 02:42:39;;;;;;;9.57;5.85;;;;;;;-141.50;100.00;63355.56;4969963;28;20050;-83
2021/10/19 02:45:07;;;;;;;9.27;5.85;;;;;;;-141.50;100.00;63355.56;4970427;28;20039;-82
2021/10/19 02:47:34;;;;;;;13.18;6.65;;;;;;;-141.50;100.00;63355.56;4971959;28;20126;-83
2021/10/19 02:50:02;;;;;;;10.10;6.40;;;;;;;-141.50;100.00;63355.56;4956500;28;20054;-83
2021/10/19 02:52:29;;;;;;;9.57;5.85;;;;;;;-141.50;100.00;63355.56;4972463;28;20472;-82
2021/10/19 02:54:56;;;;;;;8.52;5.65;;;;;;;-141.50;100.00;63355.56;4957365;28;20106;-82
2021/10/19 02:57:23;;;;;;;11.27;5.05;;;;;;;-141.50;100.00;63355.56;4974202;28;20055;-82
2021/10/19 02:59:50;;;;;;;11.27;5.05;;;;;;;-141.50;100.00;63355.56;4972685;28;20472;-82
2021/10/19 03:02:17;;;;;;;8.35;4.97;;;;;;;-141.50;100.00;63355.56;4976356;28;20038;-82
2021/10/19 03:04:44;;;;;;;7.63;4.95;;;;;;;-141.50;100.00;63355.56;4949450;28;20101;-82
2021/10/19 03:07:10;;;;;;;10.43;5.05;;;;;;;-141.50;100.00;63355.56;4975861;28;20043;-83
2021/10/19 03:09:37;;;;;;;9.73;5.22;;;;;;;-141.50;100.00;63355.56;4975933;28;20118;-83
2021/10/19 03:12:04;;;;;;;8.48;4.60;;;;;;;-141.50;100.00;63355.56;4975530;28;20043;-82
2021/10/19 03:14:31;;;;;;;8.30;4.90;;;;;;;-141.50;100.00;63355.56;4942121;28;20047;-83
2021/10/19 03:16:57;;;;;;;7.70;4.38;;;;;;;-141.50;100.00;63355.56;4974417;28;20125;-82
2021/10/19 03:19:24;;;;;;;7.68;4.75;;;;;;;-141.50;100.00;63355.56;4957173;28;20106;-82
2021/10/19 03:21:51;;;;;;;7.15;4.65;;;;;;;-141.50;100.00;63355.56;4957134;28;20085;-83
2021/10/19 03:24:17;;;;;;;6.88;4.72;;;;;;;-141.50;100.00;63355.56;4974256;28;20094;-83
2021/10/19 03:26:44;;;;;;;8.27;4.88;;;;;;;-141.50;100.00;63355.56;4973672;28;20039;-83
2021/10/19 03:29:11;;;;;;;9.82;5.00;;;;;;;-141.50;100.00;63355.56;4956706;28;20137;-83
2021/10/19 03:31:38;;;;;;;9.50;5.65;;;;;;;-141.50;100.00;63355.56;4956416;28;20127;-82
2021/10/19 03:34:05;;;;;;;10.70;6.22;;;;;;;-141.50;100.00;63355.56;4973692;28;20042;-84
2021/10/19 03:36:32;;;;;;;10.65;6.55;;;;;;;-141.50;100.00;63355.56;4973808;28;20105;-84
2021/10/19 03:38:59;;;;;;;11.35;7.35;;;;;;;-141.50;100.00;63355.56;4958530;28;20445;-83
2021/10/19 03:41:26;;;;;;;10.30;7.00;;;;;;;-141.50;100.00;63355.56;4936496;29;20131;-83
2021/10/19 03:43:53;;;;;;;11.48;6.95;;;;;;;-141.50;100.00;63355.56;4936861;29;20075;-83
2021/10/19 03:46:19;;;;;;;11.18;6.93;;;;;;;-141.50;100.00;63355.56;4936124;29;20158;-83
2021/10/19 03:48:46;;;;;;;11.05;6.43;;;;;;;-141.50;100.00;63355.56;4954155;28;20435;-82
2021/10/19 03:51:13;;;;;;;10.27;6.30;;;;;;;-141.50;100.00;63355.56;4921614;29;20043;-84
2021/10/19 03:53:41;;;;;;;9.35;5.93;;;;;;;-141.50;100.00;63355.56;4956855;28;20051;-83
2021/10/19 03:56:10;;;;;;;12.60;5.53;;;;;;;-141.50;100.00;63355.56;4954595;29;20106;-83
2021/10/19 03:58:38;;;;;;;9.50;4.40;;;;;;;-141.50;100.00;63355.56;4920028;29;20061;-83
2021/10/19 04:01:05;;;;;;;9.13;4.97;;;;;;;-141.50;100.00;63355.56;4936699;29;20646;-83
2021/10/19 04:03:32;;;;;;;8.52;4.43;;;;;;;-141.50;100.00;63355.56;4937974;29;20109;-82
2021/10/19 04:05:59;;;;;;;7.20;4.20;;;;;;;-141.50;100.00;63355.56;4937180;29;20043;-83
2021/10/19 04:08:26;;;;;;;6.00;3.60;;;;;;;-141.50;100.00;63355.56;4954636;28;20054;-83
2021/10/19 04:10:53;;;;;;;5.43;3.67;;;;;;;-141.50;100.00;63355.56;4922919;29;20384;-83
2021/10/19 04:13:21;;;;;;;5.90;3.90;;;;;;;-141.50;100.00;63355.56;4937762;29;20384;-82
2021/10/19 04:15:49;;;;;;;8.27;3.95;;;;;;;-141.50;100.00;63355.56;4937184;29;20137;-83
2021/10/19 04:18:16;;;;;;;8.45;3.58;;;;;;;-141.50;100.00;63355.56;4944347;28;20110;-82
2021/10/19 04:20:49;;;;;;;6.25;3.50;;;;;;;-141.50;100.00;63355.56;4970798;28;20110;-84
2021/10/19 04:23:15;;;;;;;7.40;3.75;;;;;;;-141.50;100.00;63355.56;4956907;28;20129;-84
2021/10/19 04:25:43;;;;;;;7.15;3.97;;;;;;;-141.50;100.00;63355.56;4956621;28;20069;-83
2021/10/19 04:28:09;;;;;;;7.13;3.38;;;;;;;-141.50;100.00;63355.56;4945869;28;20150;-84
2021/10/19 04:30:38;;;;;;;5.85;3.25;;;;;;;-141.50;100.00;63355.56;4973313;28;20065;-84
2021/10/19 04:33:05;;;;;;;7.15;3.35;;;;;;;-141.50;100.00;63355.56;4954928;28;20293;-82
2021/10/19 04:35:32;;;;;;;5.47;3.40;;;;;;;-141.50;100.00;63355.56;4956218;28;20046;-83
2021/10/19 04:37:58;;;;;;;6.22;3.42;;;;;;;-141.50;100.00;63355.56;4957554;28;20426;-84
2021/10/19 04:40:26;;;;;;;6.15;3.30;;;;;;;-141.50;100.00;63355.56;4940905;28;20172;-82
2021/10/19 04:42:53;;;;;;;4.80;3.17;;;;;;;-141.50;100.00;63355.56;4956090;28;20080;-84
2021/10/19 04:45:21;;;;;;;5.00;3.05;;;;;;;-141.50;100.00;63355.56;4956741;28;20102;-84
2021/10/19 04:47:48;;;;;;;6.20;3.45;;;;;;;-141.50;100.00;63355.56;4957892;28;20416;-82
2021/10/19 04:50:15;;;;;;;7.72;3.75;;;;;;;-141.50;100.00;63355.56;4974451;28;20117;-84
2021/10/19 04:52:42;;;;;;;6.88;3.83;;;;;;;-141.50;100.00;63355.56;4957380;28;20595;-84
2021/10/19 04:55:09;;;;;;;7.03;3.92;;;;;;;-141.50;100.00;63355.56;4950822;28;20380;-84
2021/10/19 04:57:40;;;;;;;7.85;3.45;;;;;;;-141.50;100.00;63355.56;4935690;29;20109;-83
2021/10/19 05:00:07;;;;;;;5.63;3.22;;;;;;;-141.50;100.00;63355.56;4962304;28;20410;-82
2021/10/19 05:02:45;;;;;;;7.20;2.90;;;;;;;-141.50;100.00;63355.56;4942352;28;20124;-82
2021/10/19 05:05:17;;;;;;;5.30;3.17;;;;;;;-141.50;100.00;63355.56;4967533;28;20046;-82
2021/10/19 05:07:43;;;;;;;5.93;2.88;;;;;;;-141.50;100.00;63355.56;4941268;28;20051;-83
2021/10/19 05:10:10;;;;;;;5.97;3.00;;;;;;;-141.50;100.00;63355.56;4946739;28;20065;-81
2021/10/19 05:12:36;;;;;;;5.45;2.95;;;;;;;-141.50;100.00;63355.56;4964174;28;20518;-81
2021/10/19 05:15:04;;;;;;;4.88;2.97;;;;;;;-141.50;100.00;63355.56;4940414;28;20426;-82
2021/10/19 05:17:31;;;;;;;5.97;2.88;;;;;;;-141.50;100.00;63355.56;4951721;28;20515;-81
2021/10/19 05:19:58;;;;;;;3.88;2.60;;;;;;;-141.50;100.00;63355.56;4953691;28;20059;-82
2021/10/19 05:22:25;;;;;;;12.43;3.30;;;;;;;-141.50;100.00;63355.56;4990167;28;20502;-83
2021/10/19 05:24:53;;;;;;;4.72;2.85;;;;;;;-141.50;100.00;63355.56;4960256;28;20125;-82
2021/10/19 05:27:20;;;;;;;4.53;2.70;;;;;;;-141.50;100.00;63355.56;4958226;28;20055;-82
2021/10/19 05:29:47;;;;;;;8.18;3.08;;;;;;;-141.50;100.00;63355.56;4958218;28;20042;-82
2021/10/19 05:32:14;;;;;;;5.05;3.05;;;;;;;-141.50;100.00;63355.56;4955385;28;20067;-83
2021/10/19 05:34:42;;;;;;;6.03;3.30;;;;;;;-141.50;100.00;63355.56;4981548;28;20042;-83
2021/10/19 05:37:09;;;;;;;6.18;2.97;;;;;;;-141.50;100.00;63355.56;4972089;28;20042;-83
2021/10/19 05:39:39;;;;;;;7.38;2.97;;;;;;;-141.50;100.00;63355.56;4960261;28;20042;-82
2021/10/19 05:42:07;;;;;;;5.63;2.90;;;;;;;-141.50;100.00;63355.56;4962185;28;20051;-85
2021/10/19 05:44:34;;;;;;;3.47;2.38;;;;;;;-141.50;100.00;63355.56;4952159;28;20065;-81
2021/10/19 05:47:01;;;;;;;4.03;2.53;;;;;;;-141.50;100.00;63355.56;4972514;28;20132;-83
2021/10/19 05:49:28;;;;;;;4.68;2.78;;;;;;;-141.50;100.00;63355.56;4955006;28;20484;-81
2021/10/19 05:51:55;;;;;;;4.30;2.65;;;;;;;-141.50;100.00;63355.56;4943003;28;20054;-81
2021/10/19 05:54:25;;;;;;;4.50;2.80;;;;;;;-141.50;100.00;63355.56;4965441;28;20130;-81
2021/10/19 05:56:53;;;;;;;5.22;3.40;;;;;;;-141.50;100.00;63355.56;4972379;28;20058;-82
2021/10/19 05:59:21;;;;;;;7.07;3.28;;;;;;;-141.50;100.00;63355.56;4967782;28;20045;-84
2021/10/19 06:01:48;;;;;;;9.43;3.35;;;;;;;-141.50;100.00;63355.56;4975544;28;20081;-83
2021/10/19 06:04:15;;;;;;;5.43;3.20;;;;;;;-141.50;100.00;63355.56;4988730;28;20046;-83
2021/10/19 06:06:56;;;;;;;6.65;3.47;;;;;;;-141.50;100.00;63355.56;4981331;28;20054;-83
2021/10/19 06:09:23;;;;;;;4.72;3.22;;;;;;;-141.50;100.00;63355.56;4957521;28;20069;-82
2021/10/19 06:11:50;;;;;;;4.75;2.90;;;;;;;-141.50;100.00;63355.56;4941153;28;20114;-82
2021/10/19 06:14:17;;;;;;;5.85;3.00;;;;;;;-141.50;100.00;63355.56;4932937;28;20105;-83
2021/10/19 06:16:45;;;;;;;6.07;3.40;;;;;;;-141.50;100.00;63355.56;4936647;28;20065;-83
2021/10/19 06:19:12;;;;;;;4.60;2.97;;;;;;;-141.50;100.00;63355.56;4961089;28;20058;-83
2021/10/19 06:21:42;;;;;;;5.88;3.22;;;;;;;-141.50;100.00;63355.56;4955650;28;20057;-82
2021/10/19 06:24:09;;;;;;;5.43;3.35;;;;;;;-141.50;100.00;63355.56;4951472;28;20043;-84
2021/10/19 06:26:37;;;;;;;5.15;3.00;;;;;;;-141.50;100.00;63355.56;4958083;28;20127;-83
2021/10/19 06:29:10;;;;;;;7.43;3.10;;;;;;;-141.50;100.00;63355.56;4993183;28;20038;-82
2021/10/19 06:31:38;;;;;;;5.88;3.40;;;;;;;-141.50;100.00;63355.56;4969015;28;20482;-82
2021/10/19 06:34:05;;;;;;;4.45;2.78;;;;;;;-141.50;100.00;63355.56;4941387;29;20125;-83
2021/10/19 06:36:31;;;;;;;4.85;2.83;;;;;;;-141.50;100.00;63355.56;4966264;28;20387;-83
2021/10/19 06:38:58;;;;;;;6.05;3.03;;;;;;;-141.50;100.00;63355.56;4972436;28;20046;-84
2021/10/19 06:41:24;;;;;;;5.55;3.13;;;;;;;-141.50;100.00;63355.56;4971564;28;20047;-83
2021/10/19 06:43:51;;;;;;;4.55;2.83;;;;;;;-141.50;100.00;63355.56;4970984;28;20038;-84
2021/10/19 06:46:39;;;;;;;4.85;2.83;;;;;;;-141.50;100.00;63355.56;4957551;28;20043;-84
2021/10/19 06:49:05;;;;;;;9.07;3.58;;;;;;;-141.50;100.00;63355.56;4971758;28;20070;-84
2021/10/19 06:51:32;;;;;;;7.53;3.22;;;;;;;-141.50;100.00;63355.56;4954643;28;20053;-82
2021/10/19 06:53:59;;;;;;;7.38;3.53;;;;;;;-141.50;100.00;63355.56;4954294;28;20054;-83
2021/10/19 06:56:25;;;;;;;8.68;2.60;;;;;;;-141.50;100.00;63355.56;4970213;28;20051;-84
2021/10/19 06:58:52;;;;;;;6.18;3.13;;;;;;;-141.50;100.00;63355.56;4936971;29;20119;-82
2021/10/19 07:01:20;;;;;;;5.20;2.83;;;;;;;-141.50;100.00;63355.56;4962412;28;20050;-85
2021/10/19 07:03:46;;;;;;;6.75;2.85;;;;;;;-141.50;100.00;63355.56;4960912;28;20051;-82
2021/10/19 07:06:13;;;;;;;7.53;3.25;;;;;;;-141.50;100.00;63355.56;4958224;28;20484;-84
2021/10/19 07:08:40;;;;;;;4.32;2.67;;;;;;;-141.50;100.00;63355.56;4958507;28;20054;-83
2021/10/19 07:11:07;;;;;;;6.20;2.45;;;;;;;-141.50;100.00;63355.56;4948431;28;20071;-82
2021/10/19 07:13:34;;;;;;;5.78;2.65;;;;;;;-141.50;100.00;63355.56;4947477;28;20054;-85
2021/10/19 07:16:01;;;;;;;4.20;2.60;;;;;;;-141.50;100.00;63355.56;4964989;28;20150;-82
2021/10/19 07:18:28;;;;;;;7.53;2.63;;;;;;;-141.50;100.00;63355.56;4948237;28;20102;-83
2021/10/19 07:21:09;;;;;;;4.82;2.88;;;;;;;-141.50;100.00;63355.56;4934879;28;20051;-83
2021/10/19 07:23:35;;;;;;;4.75;2.90;;;;;;;-141.50;100.00;63355.56;4956468;28;20118;-84
2021/10/19 07:26:03;;;;;;;6.97;3.10;;;;;;;-141.50;100.00;63355.56;4954582;28;20043;-83
2021/10/19 07:28:29;;;;;;;6.10;2.58;;;;;;;-141.50;100.00;63355.56;4972888;28;20057;-83
2021/10/19 07:30:56;;;;;;;5.68;2.97;;;;;;;-141.50;100.00;63355.56;4954146;28;20050;-84
2021/10/19 07:33:22;;;;;;;4.00;2.70;;;;;;;-141.50;100.00;63355.56;4966450;28;20054;-84
2021/10/19 07:35:50;;;;;;;4.13;2.60;;;;;;;-141.50;100.00;63355.56;4956503;28;20077;-83
2021/10/19 07:38:16;;;;;;;5.65;2.60;;;;;;;-141.50;100.00;63355.56;4989954;28;20500;-85
2021/10/19 07:40:43;;;;;;;4.13;2.70;;;;;;;-141.50;100.00;63355.56;4990893;28;20046;-85
2021/10/19 07:43:09;;;;;;;4.43;2.38;;;;;;;-141.50;100.00;63355.56;4989394;28;20440;-84
2021/10/19 07:45:37;;;;;;;3.92;2.42;;;;;;;-141.50;100.00;63355.56;4986526;28;20043;-84
2021/10/19 07:48:04;;;;;;;4.97;2.70;;;;;;;-141.50;100.00;63355.56;4936770;28;20086;-82
2021/10/19 07:50:31;;;;;;;4.55;2.50;;;;;;;-141.50;100.00;63355.56;4939834;28;20039;-85
2021/10/19 07:52:59;;;;;;;7.22;2.75;;;;;;;-141.50;100.00;63355.56;4962505;28;20050;-85
2021/10/19 07:55:27;;;;;;;4.65;2.53;;;;;;;-141.50;100.00;63355.56;4971814;28;20074;-84
2021/10/19 07:57:54;;;;;;;4.40;2.83;;;;;;;-141.50;100.00;63355.56;4954158;28;20043;-85
2021/10/19 08:00:24;;;;;;;5.85;2.85;;;;;;;-141.50;100.00;63355.56;4972477;28;20035;-85
2021/10/19 08:02:52;;;;;;;5.68;2.80;;;;;;;-141.50;100.00;63355.56;4953618;28;20050;-84
2021/10/19 08:05:19;;;;;;;4.60;2.80;;;;;;;-141.50;100.00;63355.56;4953184;28;20050;-83
2021/10/19 08:07:49;;;;;;;3.60;2.55;;;;;;;-141.50;100.00;63355.56;4971312;28;20046;-84
2021/10/19 08:10:23;;;;;;;4.22;2.90;;;;;;;-141.50;100.00;63355.56;4952804;28;20031;-84
2021/10/19 08:12:50;;;;;;;8.57;3.30;;;;;;;-141.50;100.00;63355.56;4970063;28;20516;-83
2021/10/19 08:15:18;;;;;;;5.60;2.67;;;;;;;-141.50;100.00;63355.56;4969225;28;20495;-82
2021/10/19 08:17:46;;;;;;;4.32;2.70;;;;;;;-141.50;100.00;63355.56;4969849;28;20122;-81
2021/10/19 08:20:15;;;;;;;5.05;2.50;;;;;;;-141.50;100.00;63355.56;4956648;28;20180;-83
2021/10/19 08:22:42;;;;;;;4.25;2.20;;;;;;;-141.50;100.00;63355.56;4973022;28;20098;-82
2021/10/19 08:25:09;;;;;;;5.03;2.63;;;;;;;-141.50;100.00;63355.56;4990109;28;20062;-84
2021/10/19 08:27:39;;;;;;;4.25;2.20;;;;;;;-141.50;100.00;63355.56;4998093;23;20057;-78
2021/10/19 08:30:08;;;;;;;4.28;2.30;;;;;;;-141.50;100.00;63355.56;4952732;28;20305;-78
2021/10/19 08:32:34;;;;;;;7.18;2.40;;;;;;;-141.50;100.00;63355.56;4968600;28;20081;-77
2021/10/19 08:35:01;;;;;;;7.60;2.40;;;;;;;-141.50;100.00;63355.56;4953512;28;20070;-77
2021/10/19 08:37:27;;;;;;;3.72;2.25;;;;;;;-141.50;100.00;63355.56;4952646;28;20054;-76
2021/10/19 08:39:55;;;;;;;4.80;2.50;;;;;;;-141.50;100.00;63355.56;4953307;28;20046;-74
2021/10/19 08:42:21;;;;;;;3.13;2.10;;;;;;;-141.50;100.00;63355.56;4970347;28;20462;-77
2021/10/19 08:44:48;;;;;;;5.70;2.50;;;;;;;-141.50;100.00;63355.56;4952682;28;20050;-78
2021/10/19 08:47:15;;;;;;;4.72;2.55;;;;;;;-141.50;100.00;63355.56;4969821;28;20459;-77
2021/10/19 08:49:42;;;;;;;3.92;2.50;;;;;;;-141.50;100.00;63355.56;4965823;28;20050;-79
2021/10/19 08:52:09;;;;;;;4.05;2.55;;;;;;;-141.50;100.00;63355.56;4958526;28;20279;-77
2021/10/19 08:54:36;;;;;;;3.97;2.33;;;;;;;-141.50;100.00;63355.56;4957947;28;20043;-78
2021/10/19 08:57:11;;;;;;;3.47;2.30;;;;;;;-141.50;100.00;63355.56;4950180;28;20047;-76
2021/10/19 08:59:45;;;;;;;4.60;2.58;;;;;;;-141.50;100.00;63355.56;4956952;28;20035;-76
2021/10/19 09:02:13;;;;;;;4.38;2.50;;;;;;;-141.50;100.00;63355.56;4957090;28;20042;-77
2021/10/19 09:04:42;;;;;;;7.45;2.80;;;;;;;-141.50;100.00;63355.56;4942355;28;20053;-77
2021/10/19 09:07:09;;;;;;;4.35;2.50;;;;;;;-141.50;100.00;63355.56;4940669;28;20047;-76
2021/10/19 09:09:37;;;;;;;4.75;3.10;;;;;;;-141.50;100.00;63355.56;4936789;28;20459;-77
2021/10/19 09:12:04;;;;;;;4.82;3.15;;;;;;;-141.50;100.00;63355.56;4961057;28;20046;-77
2021/10/19 09:14:35;;;;;;;5.55;3.25;;;;;;;-141.50;100.00;63355.56;4953441;28;20047;-78
2021/10/19 09:17:04;;;;;;;5.53;3.15;;;;;;;-141.50;100.00;63355.56;4940266;28;20563;-77
2021/10/19 09:19:35;;;;;;;4.68;3.08;;;;;;;-141.50;100.00;63355.56;4948561;28;20081;-78
2021/10/19 09:22:14;;;;;;;5.65;3.10;;;;;;;-141.50;100.00;63355.56;4936246;28;20263;-78
2021/10/19 09:24:42;;;;;;;5.57;2.72;;;;;;;-141.50;100.00;63355.56;4953307;28;20102;-78
2021/10/19 09:27:12;;;;;;;6.55;3.38;;;;;;;-141.50;100.00;63355.56;4968908;28;20043;-79
2021/10/19 09:29:44;;;;;;;5.75;2.78;;;;;;;-141.50;100.00;63355.56;4969167;28;20050;-78
2021/10/19 09:32:14;;;;;;;6.53;3.42;;;;;;;-141.50;100.00;63355.56;4936778;28;20043;-79
2021/10/19 09:34:46;;;;;;;5.75;3.40;;;;;;;-141.50;100.00;63355.56;4970854;28;20133;-79
2021/10/19 09:37:21;;;;;;;5.30;3.20;;;;;;;-141.50;100.00;63355.56;4968612;28;20043;-76
2021/10/19 09:39:51;;;;;;;5.75;3.40;;;;;;;-141.50;100.00;63355.56;4968975;28;20453;-77
2021/10/19 09:42:23;;;;;;;5.28;3.42;;;;;;;-141.50;100.00;63355.56;4969330;28;20046;-77
2021/10/19 09:45:01;;;;;;;6.68;3.25;;;;;;;-141.50;100.00;63355.56;4929045;28;20121;-77
2021/10/19 09:47:29;;;;;;;7.82;2.97;;;;;;;-141.50;100.00;63355.56;4978243;28;20389;-79
2021/10/19 09:49:56;;;;;;;5.38;3.20;;;;;;;-141.50;100.00;63355.56;4988503;28;20042;-76
2021/10/19 09:52:23;;;;;;;5.90;3.50;;;;;;;-141.50;100.00;63355.56;4988795;28;20054;-78
2021/10/19 09:54:54;;;;;;;11.07;3.47;;;;;;;-141.50;100.00;63355.56;4970736;28;20117;-77
2021/10/19 09:57:20;;;;;;;8.93;3.70;;;;;;;-141.50;100.00;63355.56;4987619;28;20209;-78
2021/10/19 09:59:47;;;;;;;7.80;3.42;;;;;;;-141.50;100.00;63355.56;4977336;28;20315;-78
2021/10/19 10:02:15;;;;;;;5.25;3.17;;;;;;;-141.50;100.00;63355.56;4979258;28;20042;-76
2021/10/19 10:04:42;;;;;;;4.05;2.90;;;;;;;-141.50;100.00;63355.56;4955247;28;20073;-76
2021/10/19 10:07:14;;;;;;;4.55;3.17;;;;;;;-141.50;100.00;63355.56;4988091;28;20042;-76
2021/10/19 10:09:41;;;;;;;4.70;3.17;;;;;;;-141.50;100.00;63355.56;4988987;28;20542;-78
2021/10/19 10:12:08;;;;;;;5.63;3.33;;;;;;;-141.50;100.00;63355.56;4988283;28;20062;-76
2021/10/19 10:14:46;;;;;;;4.03;2.75;;;;;;;-141.50;100.00;63355.56;4971396;28;20335;-76
2021/10/19 10:17:14;;;;;;;4.28;2.72;;;;;;;-141.50;100.00;63355.56;4987228;28;20082;-77
2021/10/19 10:19:43;;;;;;;4.38;2.90;;;;;;;-141.50;100.00;63355.56;4970904;28;20065;-77
2021/10/19 10:22:25;;;;;;;6.93;3.17;;;;;;;-141.50;100.00;63355.56;4964167;28;20043;-78
2021/10/19 10:25:10;;;;;;;5.63;2.90;;;;;;;-141.50;100.00;63355.56;4950443;29;20043;-79
2021/10/19 10:27:38;;;;;;;7.65;3.15;;;;;;;-141.50;100.00;63355.56;4916792;29;20090;-78
2021/10/19 10:30:16;;;;;;;3.95;2.78;;;;;;;-141.50;100.00;63355.56;4949667;29;20039;-78
2021/10/19 10:32:43;;;;;;;4.72;3.03;;;;;;;-141.50;100.00;63355.56;4944328;28;20058;-77
2021/10/19 10:35:12;;;;;;;3.95;2.53;;;;;;;-141.50;100.00;63355.56;4971906;28;20046;-78
2021/10/19 10:37:51;;;;;;;3.92;2.90;;;;;;;-141.50;100.00;63355.56;4990740;28;20105;-78
2021/10/19 10:40:44;;;;;;;4.80;2.88;;;;;;;-141.50;100.00;63355.56;4991799;28;20057;-78
2021/10/19 10:43:29;;;;;;;5.28;3.03;;;;;;;-141.50;100.00;63355.56;4968962;28;20051;-78
2021/10/19 10:46:03;;;;;;;4.95;3.15;;;;;;;-141.50;100.00;63355.56;4956037;28;20066;-78
2021/10/19 10:48:30;;;;;;;6.75;2.60;;;;;;;-141.50;100.00;63355.56;4971180;28;20053;-77
2021/10/19 10:50:58;;;;;;;6.10;3.05;;;;;;;-141.50;100.00;63355.56;4969209;28;20070;-77
2021/10/19 10:53:39;;;;;;;7.18;3.00;;;;;;;-141.50;100.00;63355.56;4933857;28;20578;-78
2021/10/19 10:56:08;;;;;;;4.35;3.10;;;;;;;-141.50;100.00;63355.56;4981549;28;20418;-78
2021/10/19 10:58:36;;;;;;;4.18;3.10;;;;;;;-141.50;100.00;63355.56;4957460;28;20128;-76
2021/10/19 11:01:13;;;;;;;6.25;3.20;;;;;;;-141.50;100.00;63355.56;4995860;28;20038;-77
2021/10/19 11:03:41;;;;;;;5.13;3.08;;;;;;;-141.50;100.00;63355.56;4983983;28;20051;-78
2021/10/19 11:06:12;;;;;;;3.58;2.80;;;;;;;-141.50;100.00;63355.56;4947023;28;20062;-77
2021/10/19 11:08:40;;;;;;;4.47;3.08;;;;;;;-141.50;100.00;63355.56;4972712;28;20045;-78
2021/10/19 11:11:16;;;;;;;4.40;2.90;;;;;;;-141.50;100.00;63355.56;4971962;28;20228;-76
2021/10/19 11:13:59;;;;;;;6.30;2.95;;;;;;;-141.50;100.00;63355.56;4975644;28;20621;-78